Time;durP1;ratioP1;P1;durP2;ratioP2;P2;SDS_P1;SDS_P2;PMS_P1;PMS_P2;Temp;Humidity;BMP_temperature;BMP_pressure;BME280_temperature;BME280_humidity;BME280_pressure;Samples;Min_cycle;Max_cycle;Signal;HPM_P1;HPM_P2
2023/07/25 00:02:04;;;;;;;;;;;;;;;27.51;41.66;99428.87;5390986;32;35217;-88
2023/07/25 00:05:06;;;;;;;;;;;;;;;27.25;42.21;99412.44;5387365;32;34756;-87
2023/07/25 00:08:09;;;;;;;;;;;;;;;27.51;41.83;99391.13;5383554;32;34584;-86
2023/07/25 00:11:13;;;;;;;;;;;;;;;26.91;43.25;99370.72;5389917;32;34380;-87
2023/07/25 00:14:16;;;;;;;;;;;;;;;27.42;41.99;99351.78;5392398;32;34885;-86
2023/07/25 00:17:22;;;;;;;;;;;;;;;27.53;41.18;99313.47;5404654;32;35607;-86
2023/07/25 00:20:25;;;;;;;;;;;;;;;27.15;41.50;99280.56;5393283;32;37209;-87
2023/07/25 00:23:27;;;;;;;;;;;;;;;27.59;40.41;99274.09;5390063;32;35234;-86
2023/07/25 00:26:29;;;;;;;;;;;;;;;27.44;40.66;99287.69;5387537;32;35693;-86
2023/07/25 00:29:31;;;;;;;;;;;;;;;27.84;39.92;99298.81;5389294;32;34408;-86
2023/07/25 00:32:34;;;;;;;;;;;;;;;27.65;40.41;99316.50;5398264;32;34397;-86
2023/07/25 00:35:36;;;;;;;;;;;;;;;27.39;41.35;99310.88;5385598;32;36054;-87
2023/07/25 00:38:38;;;;;;;;;;;;;;;28.45;38.87;99308.91;5390749;32;35530;-86
2023/07/25 00:41:40;;;;;;;;;;;;;;;27.64;40.38;99317.53;5384680;32;36988;-86
2023/07/25 00:44:42;;;;;;;;;;;;;;;27.63;40.10;99320.41;5392752;32;34741;-86
2023/07/25 00:47:44;;;;;;;;;;;;;;;28.41;38.67;99346.34;5385787;32;34297;-88
2023/07/25 00:50:46;;;;;;;;;;;;;;;27.97;41.09;99358.28;5389704;32;35384;-86
2023/07/25 00:53:48;;;;;;;;;;;;;;;27.88;40.96;99372.12;5388286;32;34660;-88
2023/07/25 00:56:50;;;;;;;;;;;;;;;28.19;39.40;99377.97;5383940;32;34373;-88
2023/07/25 00:59:52;;;;;;;;;;;;;;;28.25;39.26;99379.03;5391447;32;33895;-86
2023/07/25 01:02:54;;;;;;;;;;;;;;;28.44;38.41;99397.25;5389265;32;37067;-86
2023/07/25 01:05:56;;;;;;;;;;;;;;;28.07;39.32;99404.69;5390294;32;34894;-87
2023/07/25 01:08:58;;;;;;;;;;;;;;;28.56;37.75;99416.47;5391136;32;33932;-86
2023/07/25 01:12:01;;;;;;;;;;;;;;;28.69;37.80;99440.03;5388145;32;34686;-86
2023/07/25 01:15:03;;;;;;;;;;;;;;;28.65;38.58;99447.69;5392374;32;34393;-86
2023/07/25 01:18:05;;;;;;;;;;;;;;;27.83;42.57;99456.44;5390465;32;35037;-88
2023/07/25 01:21:08;;;;;;;;;;;;;;;26.93;47.49;99463.06;5401500;32;34802;-89
2023/07/25 01:24:10;;;;;;;;;;;;;;;26.82;47.40;99473.47;5391353;32;34633;-89
2023/07/25 01:27:15;;;;;;;;;;;;;;;26.76;49.21;99475.03;5387611;32;34646;-87
2023/07/25 01:30:17;;;;;;;;;;;;;;;26.09;51.58;99483.13;5384693;32;35516;-87
2023/07/25 01:33:19;;;;;;;;;;;;;;;25.41;56.59;99490.13;5400667;32;34726;-89
2023/07/25 01:36:21;;;;;;;;;;;;;;;24.65;59.13;99478.16;5384023;32;36229;-88
2023/07/25 01:39:23;;;;;;;;;;;;;;;25.54;55.50;99452.72;5400134;32;35089;-87
2023/07/25 01:42:25;;;;;;;;;;;;;;;25.26;57.01;99456.94;5392026;32;36424;-86
2023/07/25 01:45:27;;;;;;;;;;;;;;;25.55;55.19;99453.53;5391890;32;35491;-86
2023/07/25 01:48:29;;;;;;;;;;;;;;;25.55;55.80;99435.53;5385735;32;33976;-86
2023/07/25 01:51:31;;;;;;;;;;;;;;;24.80;58.74;99440.66;5385186;32;33981;-85
2023/07/25 01:54:33;;;;;;;;;;;;;;;24.82;59.61;99380.34;5381295;32;34049;-88
2023/07/25 01:57:35;;;;;;;;;;;;;;;24.83;60.27;99339.03;5381105;32;34547;-87
2023/07/25 02:00:37;;;;;;;;;;;;;;;25.60;56.28;99320.16;5385433;32;34720;-87
2023/07/25 02:03:39;;;;;;;;;;;;;;;25.08;57.68;99296.72;5403064;32;35899;-87
2023/07/25 02:06:41;;;;;;;;;;;;;;;25.05;60.88;99298.94;5388914;32;34012;-88
2023/07/25 02:09:44;;;;;;;;;;;;;;;25.33;57.24;99292.00;5390647;32;34995;-88
2023/07/25 02:12:45;;;;;;;;;;;;;;;25.42;57.24;99298.13;5386446;32;34854;-87
2023/07/25 02:15:48;;;;;;;;;;;;;;;24.19;61.40;99303.38;5386272;32;34672;-87
2023/07/25 02:18:50;;;;;;;;;;;;;;;24.26;60.70;99277.50;5390806;32;35034;-86
2023/07/25 02:21:52;;;;;;;;;;;;;;;24.63;62.41;99300.19;5386599;32;35420;-87
2023/07/25 02:24:54;;;;;;;;;;;;;;;25.42;58.45;99326.88;5393860;32;33314;-86
2023/07/25 02:27:56;;;;;;;;;;;;;;;25.99;55.54;99358.69;5386158;32;35538;-86
2023/07/25 02:30:58;;;;;;;;;;;;;;;25.11;60.41;99342.06;5390462;32;34700;-87
2023/07/25 02:34:00;;;;;;;;;;;;;;;24.37;59.07;99337.25;5388379;32;34563;-87
2023/07/25 02:37:02;;;;;;;;;;;;;;;24.68;57.67;99321.16;5386825;32;35646;-86
2023/07/25 02:40:05;;;;;;;;;;;;;;;24.58;61.30;99204.00;5388680;32;36495;-87
2023/07/25 02:43:07;;;;;;;;;;;;;;;24.88;61.57;99120.81;5388036;32;34703;-87
2023/07/25 02:46:09;;;;;;;;;;;;;;;26.14;55.81;99192.56;5390563;32;35986;-88
2023/07/25 02:49:11;;;;;;;;;;;;;;;25.16;59.02;99169.47;5388391;32;34653;-87
2023/07/25 02:52:13;;;;;;;;;;;;;;;25.14;57.13;99163.44;5386697;32;33727;-87
2023/07/25 02:55:15;;;;;;;;;;;;;;;25.80;54.86;99132.13;5387526;32;34266;-86
2023/07/25 02:58:18;;;;;;;;;;;;;;;25.41;55.42;99140.47;5389413;32;34763;-86
2023/07/25 03:01:20;;;;;;;;;;;;;;;24.86;59.12;99144.38;5389883;32;34810;-87
2023/07/25 03:04:22;;;;;;;;;;;;;;;24.99;57.75;99181.34;5389298;32;34352;-86
2023/07/25 03:07:24;;;;;;;;;;;;;;;26.13;54.45;99202.50;5385996;32;35378;-86
2023/07/25 03:10:26;;;;;;;;;;;;;;;25.95;55.47;99202.06;5386569;32;35336;-87
2023/07/25 03:13:28;;;;;;;;;;;;;;;25.84;55.97;99235.69;5385676;32;35096;-87
2023/07/25 03:16:30;;;;;;;;;;;;;;;25.40;57.75;99241.00;5389607;32;34097;-89
2023/07/25 03:19:32;;;;;;;;;;;;;;;25.63;56.94;99247.16;5393073;32;34027;-87
2023/07/25 03:22:34;;;;;;;;;;;;;;;25.12;58.87;99262.28;5387063;32;35655;-87
2023/07/25 03:25:36;;;;;;;;;;;;;;;24.41;63.73;99260.69;5392467;32;36787;-88
2023/07/25 03:28:38;;;;;;;;;;;;;;;24.46;62.51;99256.44;5393751;32;37182;-88
2023/07/25 03:31:40;;;;;;;;;;;;;;;24.03;63.76;99276.59;5385237;32;35580;-87
2023/07/25 03:34:42;;;;;;;;;;;;;;;24.04;62.67;99275.59;5390930;32;35187;-88
2023/07/25 03:37:54;;;;;;;;;;;;;;;24.30;62.73;99284.22;5392698;32;37579;-87
2023/07/25 03:40:56;;;;;;;;;;;;;;;24.70;60.79;99292.25;5388351;32;35059;-87
2023/07/25 03:43:58;;;;;;;;;;;;;;;25.63;58.34;99300.97;5393576;32;34545;-87
2023/07/25 03:47:00;;;;;;;;;;;;;;;25.01;60.53;99285.00;5390261;32;36327;-87
2023/07/25 03:50:02;;;;;;;;;;;;;;;24.91;61.27;99273.62;5393546;32;35361;-87
2023/07/25 03:53:04;;;;;;;;;;;;;;;25.28;59.06;99266.66;5389714;32;35861;-87
2023/07/25 03:56:07;;;;;;;;;;;;;;;24.24;63.32;99263.44;5390401;32;36130;-87
2023/07/25 03:59:09;;;;;;;;;;;;;;;24.55;62.97;99259.94;5390771;32;35230;-87
2023/07/25 04:02:11;;;;;;;;;;;;;;;24.73;58.84;99268.56;5389254;32;35218;-86
2023/07/25 04:05:14;;;;;;;;;;;;;;;24.57;57.43;99255.22;5394343;32;34518;-89
2023/07/25 04:08:16;;;;;;;;;;;;;;;25.04;55.21;99256.91;5388672;32;34659;-87
2023/07/25 04:11:18;;;;;;;;;;;;;;;24.68;56.28;99265.56;5395705;32;34389;-87
2023/07/25 04:14:20;;;;;;;;;;;;;;;24.56;56.11;99275.03;5391133;32;35410;-87
2023/07/25 04:17:22;;;;;;;;;;;;;;;24.28;56.88;99274.63;5390680;32;34410;-87
2023/07/25 04:20:24;;;;;;;;;;;;;;;24.46;56.23;99267.19;5387673;32;36549;-87
2023/07/25 04:23:26;;;;;;;;;;;;;;;24.97;54.93;99253.28;5390162;32;35551;-87
2023/07/25 04:26:28;;;;;;;;;;;;;;;24.78;55.00;99250.03;5391866;32;35089;-87
2023/07/25 04:29:30;;;;;;;;;;;;;;;24.87;54.60;99248.16;5390239;32;35766;-87
2023/07/25 04:32:32;;;;;;;;;;;;;;;26.08;51.17;99241.78;5388378;32;35054;-87
2023/07/25 04:35:34;;;;;;;;;;;;;;;25.95;51.14;99247.00;5397409;32;35615;-87
2023/07/25 04:38:36;;;;;;;;;;;;;;;25.75;51.65;99252.94;5396567;32;36169;-88
2023/07/25 04:41:38;;;;;;;;;;;;;;;25.30;52.63;99253.87;5387472;32;35009;-87
2023/07/25 04:44:40;;;;;;;;;;;;;;;24.93;53.25;99249.28;5389486;32;34449;-88
2023/07/25 04:47:42;;;;;;;;;;;;;;;26.53;49.21;99250.66;5387159;32;34890;-88
2023/07/25 04:50:46;;;;;;;;;;;;;;;27.09;47.39;99259.78;5380229;32;34905;-87
2023/07/25 04:53:48;;;;;;;;;;;;;;;26.08;50.50;99258.81;5392150;32;34372;-88
2023/07/25 04:56:50;;;;;;;;;;;;;;;26.96;49.94;99268.53;5386178;32;34466;-88
2023/07/25 04:59:52;;;;;;;;;;;;;;;26.84;51.26;99253.91;5391813;32;34556;-87
2023/07/25 05:02:54;;;;;;;;;;;;;;;26.59;52.63;99255.28;5387424;32;35533;-88
2023/07/25 05:05:57;;;;;;;;;;;;;;;26.10;54.90;99251.38;5391450;32;35491;-90
2023/07/25 05:08:59;;;;;;;;;;;;;;;26.38;54.68;99259.56;5395554;32;34928;-93
2023/07/25 05:12:04;;;;;;;;;;;;;;;27.49;49.74;99239.34;5387118;32;34703;-90
2023/07/25 05:15:06;;;;;;;;;;;;;;;27.23;52.21;99225.66;5388978;32;33778;-91
2023/07/25 05:18:08;;;;;;;;;;;;;;;27.88;48.59;99199.31;5372308;32;37148;-92
2023/07/25 05:21:10;;;;;;;;;;;;;;;28.28;46.57;99216.56;5404159;32;34838;-91
2023/07/25 05:24:14;;;;;;;;;;;;;;;27.65;47.71;99223.87;5392445;32;34533;-93
2023/07/25 05:27:17;;;;;;;;;;;;;;;28.20;45.98;99206.72;5387341;32;35561;-92
2023/07/25 05:30:19;;;;;;;;;;;;;;;28.58;44.81;99211.66;5389090;32;35567;-92
2023/07/25 05:33:21;;;;;;;;;;;;;;;29.04;42.77;99198.22;5385834;32;34471;-90
2023/07/25 05:36:23;;;;;;;;;;;;;;;30.01;40.43;99215.56;5395805;32;34863;-90
2023/07/25 05:39:25;;;;;;;;;;;;;;;29.81;41.10;99190.44;5391482;32;34829;-92
2023/07/25 05:42:27;;;;;;;;;;;;;;;29.44;41.51;99197.38;5389958;32;33583;-91
2023/07/25 05:45:29;;;;;;;;;;;;;;;29.67;40.92;99208.59;5385570;32;32866;-92
2023/07/25 05:48:31;;;;;;;;;;;;;;;29.63;40.31;99191.13;5400255;32;35097;-92
2023/07/25 05:51:33;;;;;;;;;;;;;;;30.89;38.60;99194.09;5400107;32;34622;-87
2023/07/25 05:54:35;;;;;;;;;;;;;;;30.67;37.94;99198.19;5392040;32;33924;-86
2023/07/25 05:57:37;;;;;;;;;;;;;;;30.83;37.41;99210.41;5396248;32;34566;-87
2023/07/25 06:00:39;;;;;;;;;;;;;;;30.90;36.52;99227.47;5391633;32;34653;-88
2023/07/25 06:03:41;;;;;;;;;;;;;;;30.41;37.83;99234.44;5389391;32;34864;-87
2023/07/25 06:06:44;;;;;;;;;;;;;;;30.65;37.27;99225.50;5388496;32;34374;-89
2023/07/25 06:09:46;;;;;;;;;;;;;;;32.68;33.06;99224.81;5381754;32;35320;-89
2023/07/25 06:12:48;;;;;;;;;;;;;;;30.98;35.92;99221.81;5398453;32;35557;-89
2023/07/25 06:15:50;;;;;;;;;;;;;;;29.65;37.59;99216.13;5391103;32;34283;-87
2023/07/25 06:18:52;;;;;;;;;;;;;;;29.76;37.57;99214.63;5401990;32;35378;-88
2023/07/25 06:21:54;;;;;;;;;;;;;;;31.77;33.73;99210.22;5409476;32;35697;-87
2023/07/25 06:24:57;;;;;;;;;;;;;;;30.72;35.70;99201.09;5409380;32;34683;-87
2023/07/25 06:27:59;;;;;;;;;;;;;;;30.93;35.21;99202.63;5402528;32;33576;-89
2023/07/25 06:31:02;;;;;;;;;;;;;;;29.32;38.71;99187.19;5396642;32;34477;-87
2023/07/25 06:34:04;;;;;;;;;;;;;;;30.87;35.43;99185.34;5391813;32;36071;-86
2023/07/25 06:37:07;;;;;;;;;;;;;;;30.25;36.58;99183.41;5389041;32;35506;-87
2023/07/25 06:40:09;;;;;;;;;;;;;;;29.90;37.62;99179.16;5397060;32;34692;-90
2023/07/25 06:43:11;;;;;;;;;;;;;;;30.56;36.85;99169.06;5394609;32;32786;-89
2023/07/25 06:46:14;;;;;;;;;;;;;;;31.43;34.71;99164.63;5395997;32;35297;-88
2023/07/25 06:49:17;;;;;;;;;;;;;;;32.10;33.04;99148.41;5355475;32;33734;-90
2023/07/25 06:52:20;;;;;;;;;;;;;;;32.29;32.37;99150.03;5392490;32;35659;-93
2023/07/25 06:55:22;;;;;;;;;;;;;;;32.13;32.46;99148.78;5339645;32;35172;-87
2023/07/25 06:58:33;;;;;;;;;;;;;;;34.44;28.43;99141.13;5341951;32;38062;-87
2023/07/25 07:01:45;;;;;;;;;;;;;;;33.25;30.07;99132.63;5372679;32;34326;-89
2023/07/25 07:05:24;;;;;;;;;;;;;;;34.01;28.60;99127.22;5368945;32;35376;-87
2023/07/25 07:08:42;;;;;;;;;;;;;;;34.97;26.53;99118.06;5376347;32;35896;-86
2023/07/25 07:11:44;;;;;;;;;;;;;;;33.30;29.15;99119.13;5363741;32;35646;-84
2023/07/25 07:14:55;;;;;;;;;;;;;;;33.65;28.96;99112.81;5388778;32;34521;-86
2023/07/25 07:17:57;;;;;;;;;;;;;;;34.79;26.93;99093.72;5375830;32;35989;-88
2023/07/25 07:21:02;;;;;;;;;;;;;;;34.88;26.14;99084.03;5404072;32;33100;-90
2023/07/25 07:24:05;;;;;;;;;;;;;;;33.66;28.04;99081.78;5408020;32;37051;-84
2023/07/25 07:27:09;;;;;;;;;;;;;;;33.45;28.70;99085.16;5384735;32;35039;-89
2023/07/25 07:30:11;;;;;;;;;;;;;;;32.98;29.34;99086.03;5407080;32;36639;-87
2023/07/25 07:33:13;;;;;;;;;;;;;;;32.02;30.35;99084.34;5392453;32;34023;-89
2023/07/25 07:36:16;;;;;;;;;;;;;;;33.07;28.95;99076.41;5401002;32;34264;-87
2023/07/25 07:39:18;;;;;;;;;;;;;;;34.38;26.77;99071.16;5390117;32;36206;-85
2023/07/25 07:42:20;;;;;;;;;;;;;;;32.38;30.35;99069.00;5393870;32;34109;-89
2023/07/25 07:45:27;;;;;;;;;;;;;;;32.13;31.11;99061.81;5385968;32;36528;-88
2023/07/25 07:48:32;;;;;;;;;;;;;;;32.77;31.70;99062.91;5382166;32;33310;-88
2023/07/25 07:51:35;;;;;;;;;;;;;;;32.10;33.57;99072.31;5397484;32;35155;-91
2023/07/25 07:54:39;;;;;;;;;;;;;;;33.13;31.92;99082.81;5388687;32;34902;-89
2023/07/25 07:57:42;;;;;;;;;;;;;;;32.99;32.15;99075.97;5393870;32;34201;-86
2023/07/25 08:00:45;;;;;;;;;;;;;;;33.06;31.74;99076.66;5388570;32;36889;-87
2023/07/25 08:03:48;;;;;;;;;;;;;;;32.68;32.02;99067.03;5395782;32;35926;-91
2023/07/25 08:06:50;;;;;;;;;;;;;;;32.37;33.03;99061.91;5376955;32;35611;-91
2023/07/25 08:09:53;;;;;;;;;;;;;;;32.66;34.16;99082.78;5342946;32;34317;-90
2023/07/25 08:12:56;;;;;;;;;;;;;;;30.93;38.09;99081.38;5367439;32;34939;-88
2023/07/25 08:15:58;;;;;;;;;;;;;;;31.17;38.03;99074.28;5350623;32;35004;-89
2023/07/25 08:19:01;;;;;;;;;;;;;;;30.81;39.12;99076.91;5335716;32;36075;-86
2023/07/25 08:22:03;;;;;;;;;;;;;;;30.99;39.04;99082.38;5331070;32;35758;-87
2023/07/25 08:25:06;;;;;;;;;;;;;;;29.92;41.03;99068.72;5331087;32;35230;-87
2023/07/25 08:28:09;;;;;;;;;;;;;;;29.61;41.45;99063.25;5341191;32;36645;-87
2023/07/25 08:31:12;;;;;;;;;;;;;;;29.78;41.17;99064.44;5334525;32;34798;-88
2023/07/25 08:34:15;;;;;;;;;;;;;;;29.80;41.41;99050.69;5361540;32;33661;-89
2023/07/25 08:37:17;;;;;;;;;;;;;;;29.08;43.96;99047.19;5365747;32;35142;-86
2023/07/25 08:40:19;;;;;;;;;;;;;;;28.25;46.32;99046.75;5366922;32;36692;-89
2023/07/25 08:43:23;;;;;;;;;;;;;;;28.41;46.97;99051.78;5367129;32;35049;-86
2023/07/25 08:46:26;;;;;;;;;;;;;;;28.30;47.90;99055.06;5348619;32;35165;-87
2023/07/25 08:49:29;;;;;;;;;;;;;;;28.45;48.63;99053.03;5350621;32;34732;-88
2023/07/25 08:52:31;;;;;;;;;;;;;;;28.39;49.42;99064.66;5377804;32;35511;-86
2023/07/25 08:55:34;;;;;;;;;;;;;;;28.32;47.01;99075.47;5350994;32;33871;-86
2023/07/25 08:58:36;;;;;;;;;;;;;;;28.53;45.64;99073.59;5352752;32;38305;-88
2023/07/25 09:01:38;;;;;;;;;;;;;;;28.42;47.51;99075.06;5368251;32;34957;-89
2023/07/25 09:04:40;;;;;;;;;;;;;;;28.25;49.03;99115.13;5357954;32;37921;-92
2023/07/25 09:07:43;;;;;;;;;;;;;;;27.85;51.89;99113.34;5365121;32;35642;-87
2023/07/25 09:10:45;;;;;;;;;;;;;;;27.90;51.43;99113.56;5358837;32;35905;-89
2023/07/25 09:13:48;;;;;;;;;;;;;;;27.79;52.01;99155.47;5349388;32;34053;-89
2023/07/25 09:16:50;;;;;;;;;;;;;;;27.79;51.97;99204.91;5349614;32;36246;-89
2023/07/25 09:19:52;;;;;;;;;;;;;;;27.69;53.94;99281.84;5362573;32;35758;-87
2023/07/25 09:22:57;;;;;;;;;;;;;;;26.77;57.66;99414.72;5379700;32;36252;-89
2023/07/25 09:26:09;;;;;;;;;;;;;;;26.43;59.94;99429.59;5372893;32;34615;-89
2023/07/25 09:29:12;;;;;;;;;;;;;;;26.20;60.84;99370.38;5371490;32;36014;-88
2023/07/25 09:32:41;;;;;;;;;;;;;;;24.99;68.09;99386.50;5372290;32;34482;-92
2023/07/25 09:35:49;;;;;;;;;;;;;;;24.42;69.37;99393.97;5365118;32;33631;-89
2023/07/25 09:38:58;;;;;;;;;;;;;;;24.75;68.66;99379.38;5359478;32;35326;-86
2023/07/25 09:42:01;;;;;;;;;;;;;;;24.57;68.17;99374.25;5369247;32;34973;-87
2023/07/25 09:45:07;;;;;;;;;;;;;;;24.66;66.42;99361.59;5367342;32;34752;-89
2023/07/25 09:48:09;;;;;;;;;;;;;;;24.04;67.87;99348.88;5385796;32;34059;-86
2023/07/25 09:51:12;;;;;;;;;;;;;;;24.08;69.12;99357.41;5369439;32;34397;-89
2023/07/25 09:54:20;;;;;;;;;;;;;;;23.81;69.99;99347.91;5389768;32;34857;-89
2023/07/25 09:57:23;;;;;;;;;;;;;;;23.73;73.10;99321.94;5364639;32;35460;-88
2023/07/25 10:00:28;;;;;;;;;;;;;;;23.17;73.32;99294.13;5343291;32;36767;-89
2023/07/25 10:03:30;;;;;;;;;;;;;;;23.65;74.30;99254.06;5354233;32;35150;-87
2023/07/25 10:06:33;;;;;;;;;;;;;;;23.48;71.62;99245.19;5353153;32;34908;-88
2023/07/25 10:09:37;;;;;;;;;;;;;;;23.96;70.43;99243.44;5347720;32;33966;-86
2023/07/25 10:12:39;;;;;;;;;;;;;;;24.03;70.83;99255.13;5372042;32;35226;-86
2023/07/25 10:15:44;;;;;;;;;;;;;;;23.84;69.31;99255.53;5367373;32;36558;-89
2023/07/25 10:18:54;;;;;;;;;;;;;;;23.74;73.48;99280.69;5373234;32;34678;-87
2023/07/25 10:21:56;;;;;;;;;;;;;;;23.76;71.28;99297.47;5380139;32;36292;-86
2023/07/25 10:24:59;;;;;;;;;;;;;;;23.09;75.64;99309.38;5369225;32;35416;-88
2023/07/25 10:28:01;;;;;;;;;;;;;;;23.80;71.33;99291.75;5353071;32;35096;-87
2023/07/25 10:31:07;;;;;;;;;;;;;;;23.55;73.54;99289.06;5361333;32;36528;-88
2023/07/25 10:34:10;;;;;;;;;;;;;;;24.18;69.75;99296.34;5362987;32;34493;-86
2023/07/25 10:37:22;;;;;;;;;;;;;;;24.54;67.86;99320.06;5352277;32;34917;-86
2023/07/25 10:40:24;;;;;;;;;;;;;;;23.75;70.09;99317.25;5363912;32;34353;-87
2023/07/25 10:43:29;;;;;;;;;;;;;;;23.88;71.67;99292.56;5373865;32;34827;-87
2023/07/25 10:46:32;;;;;;;;;;;;;;;24.50;70.09;99262.31;5371395;32;35348;-87
2023/07/25 10:49:53;;;;;;;;;;;;;;;24.62;65.58;99243.97;5379782;32;38472;-93
2023/07/25 10:52:55;;;;;;;;;;;;;;;24.24;66.49;99231.22;5360695;32;35527;-86
2023/07/25 10:56:03;;;;;;;;;;;;;;;24.22;67.35;99205.56;5383131;32;36286;-85
2023/07/25 10:59:11;;;;;;;;;;;;;;;24.28;66.95;99220.94;5364781;32;34381;-87
2023/07/25 11:02:32;;;;;;;;;;;;;;;24.00;68.62;99212.53;5373128;32;34596;-88
2023/07/25 11:05:34;;;;;;;;;;;;;;;24.40;68.81;99226.78;5366743;32;37586;-87
2023/07/25 11:08:37;;;;;;;;;;;;;;;25.41;62.99;99247.22;5354272;32;34869;-87
2023/07/25 11:11:46;;;;;;;;;;;;;;;26.41;58.33;99226.09;5365474;32;34558;-87
2023/07/25 11:14:48;;;;;;;;;;;;;;;26.19;59.09;99223.31;5370354;32;37381;-90
2023/07/25 11:17:50;;;;;;;;;;;;;;;26.13;57.79;99196.28;5374057;32;37494;-89
2023/07/25 11:21:05;;;;;;;;;;;;;;;25.87;59.71;99164.50;5375727;32;34892;-88
2023/07/25 11:24:08;;;;;;;;;;;;;;;26.28;58.88;99129.78;5378674;32;34787;-87
2023/07/25 11:27:10;;;;;;;;;;;;;;;25.89;58.71;99125.63;5365801;32;34890;-88
2023/07/25 11:30:17;;;;;;;;;;;;;;;26.65;55.75;99127.88;5371956;32;34488;-88
2023/07/25 11:33:20;;;;;;;;;;;;;;;26.56;56.09;99123.66;5358044;32;36752;-88
2023/07/25 11:36:22;;;;;;;;;;;;;;;26.45;56.76;99112.34;5371402;32;35221;-88
2023/07/25 11:39:25;;;;;;;;;;;;;;;27.57;53.53;99097.22;5382921;32;35617;-89
2023/07/25 11:42:27;;;;;;;;;;;;;;;28.11;51.80;99093.69;5369977;32;35666;-87
2023/07/25 11:45:30;;;;;;;;;;;;;;;27.11;54.26;99089.69;5361622;32;35465;-89
2023/07/25 11:48:32;;;;;;;;;;;;;;;27.92;53.47;99079.09;5368258;32;34461;-87
2023/07/25 11:51:34;;;;;;;;;;;;;;;26.19;56.42;99077.06;5361679;32;35727;-89
2023/07/25 11:54:37;;;;;;;;;;;;;;;27.24;54.19;99060.09;5367082;32;34116;-89
2023/07/25 11:57:42;;;;;;;;;;;;;;;27.12;53.94;99075.19;5370610;32;34282;-92
2023/07/25 12:00:48;;;;;;;;;;;;;;;26.97;53.73;99097.66;5362069;32;34865;-88
2023/07/25 12:03:55;;;;;;;;;;;;;;;26.65;54.82;99090.16;5376394;32;35561;-93
2023/07/25 12:07:01;;;;;;;;;;;;;;;27.45;52.88;99089.69;5373414;32;33471;-91
2023/07/25 12:10:03;;;;;;;;;;;;;;;27.89;51.85;99104.66;5379485;32;34928;-90
2023/07/25 12:13:08;;;;;;;;;;;;;;;27.25;52.65;99113.03;5386494;32;34542;-90
2023/07/25 12:16:24;;;;;;;;;;;;;;;26.58;55.21;99117.03;5382249;32;35022;-90
2023/07/25 12:19:26;;;;;;;;;;;;;;;26.91;53.84;99121.88;5385820;32;34710;-92
2023/07/25 12:22:29;;;;;;;;;;;;;;;27.43;51.93;99116.00;5376374;32;34121;-89
2023/07/25 12:25:31;;;;;;;;;;;;;;;27.47;52.66;99127.25;5377369;32;34587;-90
2023/07/25 12:28:40;;;;;;;;;;;;;;;26.45;54.50;99131.22;5383899;32;34581;-92
2023/07/25 12:31:45;;;;;;;;;;;;;;;27.14;52.95;99127.06;5371227;32;35012;-90
2023/07/25 12:34:49;;;;;;;;;;;;;;;26.78;54.41;99113.66;5385161;32;34822;-89
2023/07/25 12:37:57;;;;;;;;;;;;;;;28.01;50.54;99105.69;5369622;32;33692;-90
2023/07/25 12:40:59;;;;;;;;;;;;;;;27.77;51.15;99128.69;5391897;32;36412;-90
2023/07/25 12:44:01;;;;;;;;;;;;;;;26.46;55.28;99132.87;5384332;32;35336;-92
2023/07/25 12:47:07;;;;;;;;;;;;;;;26.97;54.63;99108.44;5377200;32;35526;-89
2023/07/25 12:50:09;;;;;;;;;;;;;;;27.10;54.15;99099.63;5390298;32;35333;-89
2023/07/25 12:53:12;;;;;;;;;;;;;;;26.14;57.13;99080.31;5382452;32;35307;-92
2023/07/25 12:56:15;;;;;;;;;;;;;;;26.80;56.03;99042.38;5377830;32;34031;-88
2023/07/25 12:59:17;;;;;;;;;;;;;;;26.84;55.97;99000.50;5371018;32;34158;-89
2023/07/25 13:02:20;;;;;;;;;;;;;;;26.59;57.58;98985.84;5372458;32;35515;-89
2023/07/25 13:05:22;;;;;;;;;;;;;;;26.42;58.41;98980.75;5367388;32;38510;-91
2023/07/25 13:08:25;;;;;;;;;;;;;;;26.75;56.61;98976.62;5378189;32;35334;-89
2023/07/25 13:11:27;;;;;;;;;;;;;;;25.95;59.06;98978.66;5374493;32;34315;-91
2023/07/25 13:14:29;;;;;;;;;;;;;;;26.50;58.37;98971.69;5379096;32;34338;-92
2023/07/25 13:17:32;;;;;;;;;;;;;;;27.33;55.11;98956.41;5385513;32;34641;-92
2023/07/25 13:20:35;;;;;;;;;;;;;;;27.18;54.73;98998.88;5390675;32;33787;-93
2023/07/25 13:23:37;;;;;;;;;;;;;;;27.02;55.08;99018.03;5367850;32;34449;-90
2023/07/25 13:26:40;;;;;;;;;;;;;;;26.99;55.32;99024.69;5373481;32;34918;-90
2023/07/25 13:29:43;;;;;;;;;;;;;;;27.02;55.18;99009.94;5376265;32;34101;-91
2023/07/25 13:32:46;;;;;;;;;;;;;;;26.87;55.97;99054.03;5377178;32;34730;-91
2023/07/25 13:35:50;;;;;;;;;;;;;;;26.87;55.38;99016.31;5352887;32;35293;-92
2023/07/25 13:38:55;;;;;;;;;;;;;;;28.09;52.20;99064.19;5377482;32;36550;-91
2023/07/25 13:41:57;;;;;;;;;;;;;;;27.65;52.48;99067.34;5367884;32;34203;-90
2023/07/25 13:44:59;;;;;;;;;;;;;;;27.34;53.34;99075.94;5372855;32;33690;-91
2023/07/25 13:48:01;;;;;;;;;;;;;;;26.29;56.67;99074.06;5370170;32;35368;-90
2023/07/25 13:51:04;;;;;;;;;;;;;;;26.03;57.82;99082.69;5374623;32;34280;-90
2023/07/25 13:54:06;;;;;;;;;;;;;;;27.26;53.54;99087.72;5361309;32;35394;-91
2023/07/25 13:57:08;;;;;;;;;;;;;;;27.63;52.52;99096.38;5377191;32;34775;-90
2023/07/25 14:00:12;;;;;;;;;;;;;;;27.26;53.10;99090.41;5376895;32;34334;-91
2023/07/25 14:03:14;;;;;;;;;;;;;;;26.84;53.51;99088.63;5398700;32;36814;-90
2023/07/25 14:06:16;;;;;;;;;;;;;;;26.98;53.12;99096.63;5389994;32;34181;-91
2023/07/25 14:09:21;;;;;;;;;;;;;;;27.12;51.94;99072.50;5391417;32;35281;-92
2023/07/25 14:12:23;;;;;;;;;;;;;;;27.37;50.96;99062.03;5402707;32;36930;-90
2023/07/25 14:15:26;;;;;;;;;;;;;;;26.43;54.10;99068.63;5411181;32;34513;-88
2023/07/25 14:18:28;;;;;;;;;;;;;;;26.34;54.83;99069.75;5395849;32;34764;-89
2023/07/25 14:21:30;;;;;;;;;;;;;;;26.25;54.27;99059.31;5385700;32;34473;-89
2023/07/25 14:24:33;;;;;;;;;;;;;;;26.56;53.23;99045.53;5396693;32;35522;-88
2023/07/25 14:27:35;;;;;;;;;;;;;;;27.26;50.54;99012.19;5388850;32;35206;-90
2023/07/25 14:30:38;;;;;;;;;;;;;;;26.79;51.44;99002.97;5403055;32;35531;-90
2023/07/25 14:33:40;;;;;;;;;;;;;;;26.77;50.35;99009.59;5393818;32;35134;-91
2023/07/25 14:36:42;;;;;;;;;;;;;;;26.82;50.84;99028.72;5398467;32;33985;-90
2023/07/25 14:39:44;;;;;;;;;;;;;;;26.37;52.32;99042.44;5399451;32;34896;-90
2023/07/25 14:42:46;;;;;;;;;;;;;;;27.38;49.56;99034.88;5402788;32;35201;-92
2023/07/25 14:45:49;;;;;;;;;;;;;;;27.02;50.09;99018.03;5397386;32;35282;-90
2023/07/25 14:48:51;;;;;;;;;;;;;;;26.49;51.46;98937.69;5399758;32;35341;-92
2023/07/25 14:51:53;;;;;;;;;;;;;;;26.40;52.06;98847.28;5395985;32;34652;-90
2023/07/25 14:54:55;;;;;;;;;;;;;;;26.86;51.36;98847.53;5398433;32;34810;-91
2023/07/25 14:57:57;;;;;;;;;;;;;;;26.70;50.95;98840.59;5413101;32;34759;-89
2023/07/25 15:00:59;;;;;;;;;;;;;;;27.95;47.83;98879.72;5401675;32;34290;-89
2023/07/25 15:04:01;;;;;;;;;;;;;;;27.16;48.86;98863.41;5404171;32;36478;-89
2023/07/25 15:07:03;;;;;;;;;;;;;;;27.06;49.12;98865.66;5399230;32;34762;-90
2023/07/25 15:10:06;;;;;;;;;;;;;;;28.33;46.18;98887.16;5404929;32;34345;-91
2023/07/25 15:13:08;;;;;;;;;;;;;;;27.59;47.85;98895.44;5416672;32;34591;-88
2023/07/25 15:16:11;;;;;;;;;;;;;;;27.75;47.61;98895.06;5407297;32;34659;-89
2023/07/25 15:19:13;;;;;;;;;;;;;;;27.61;47.94;98906.84;5407089;32;34388;-88
2023/07/25 15:22:15;;;;;;;;;;;;;;;27.18;48.55;98905.31;5409334;32;34197;-90
2023/07/25 15:25:17;;;;;;;;;;;;;;;27.35;48.68;98899.53;5402335;32;34646;-89
2023/07/25 15:28:19;;;;;;;;;;;;;;;27.54;47.71;98896.06;5399220;32;34783;-92
2023/07/25 15:31:21;;;;;;;;;;;;;;;26.73;50.18;98912.97;5397504;32;34137;-88
2023/07/25 15:34:24;;;;;;;;;;;;;;;26.79;49.69;98911.31;5399765;32;34685;-87
2023/07/25 15:37:26;;;;;;;;;;;;;;;27.51;48.37;98913.50;5403547;32;36203;-89
2023/07/25 15:40:29;;;;;;;;;;;;;;;26.54;51.36;98929.88;5403882;32;35074;-89
2023/07/25 15:43:31;;;;;;;;;;;;;;;26.26;52.07;98942.47;5403649;32;35791;-90
2023/07/25 15:46:33;;;;;;;;;;;;;;;26.43;51.74;98954.66;5397063;32;35451;-89
2023/07/25 15:49:37;;;;;;;;;;;;;;;26.67;50.59;98959.59;5396480;32;34448;-92
2023/07/25 15:52:39;;;;;;;;;;;;;;;27.35;48.91;98965.13;5397391;32;34608;-92
2023/07/25 15:55:41;;;;;;;;;;;;;;;27.63;48.10;98966.84;5402150;32;34253;-91